Time;durP1;ratioP1;P1;durP2;ratioP2;P2;SDS_P1;SDS_P2;PMS_P1;PMS_P2;Temp;Humidity;BMP_temperature;BMP_pressure;BME280_temperature;BME280_humidity;BME280_pressure;Samples;Min_cycle;Max_cycle;Signal;HPM_P1;HPM_P2
2020/12/28 00:00:49;;;;;;;0.75;0.43;;;24.40;29.60;;;;;;5009271;28;20377;-46
2020/12/28 00:03:15;;;;;;;0.50;0.47;;;24.40;29.60;;;;;;5003429;28;20442;-47
2020/12/28 00:05:41;;;;;;;0.80;0.40;;;24.40;29.70;;;;;;5009178;28;20497;-46
2020/12/28 00:08:06;;;;;;;0.60;0.30;;;24.40;29.70;;;;;;5009363;28;20442;-46
2020/12/28 00:10:32;;;;;;;0.63;0.30;;;24.40;29.80;;;;;;4979114;28;20049;-47
2020/12/28 00:13:00;;;;;;;0.63;0.30;;;24.30;29.80;;;;;;5007309;28;20026;-46
2020/12/28 00:15:28;;;;;;;0.70;0.40;;;24.30;29.80;;;;;;4998775;28;20030;-48
2020/12/28 00:17:55;;;;;;;0.55;0.32;;;24.30;29.90;;;;;;4997585;28;20073;-49
2020/12/28 00:20:23;;;;;;;0.30;0.30;;;24.20;29.90;;;;;;5002243;28;20042;-47
2020/12/28 00:22:49;;;;;;;0.73;0.32;;;24.20;29.90;;;;;;5009456;28;20038;-46
2020/12/28 00:25:17;;;;;;;0.43;0.30;;;24.20;30.00;;;;;;5008722;28;20137;-47
2020/12/28 00:27:43;;;;;;;1.30;0.75;;;24.20;30.00;;;;;;4994514;28;20041;-46
2020/12/28 00:30:09;;;;;;;0.30;0.30;;;24.20;30.00;;;;;;4994773;28;20030;-45
2020/12/28 00:32:38;;;;;;;0.65;0.38;;;24.10;30.00;;;;;;5007073;28;20034;-49
2020/12/28 00:35:08;;;;;;;0.73;0.35;;;24.10;30.00;;;;;;4997839;28;20057;-48
2020/12/28 00:37:34;;;;;;;0.47;0.43;;;24.10;30.00;;;;;;4998286;28;20060;-48
2020/12/28 00:40:00;;;;;;;0.55;0.35;;;24.10;30.00;;;;;;4998028;28;20058;-49
2020/12/28 00:42:28;;;;;;;0.28;0.28;;;24.10;30.00;;;;;;4997497;28;20408;-47
2020/12/28 00:44:55;;;;;;;0.73;0.43;;;24.00;30.00;;;;;;4997685;28;20392;-51
2020/12/28 00:47:21;;;;;;;0.55;0.40;;;24.00;30.10;;;;;;5002432;28;20026;-51
2020/12/28 00:49:48;;;;;;;0.63;0.40;;;24.00;30.10;;;;;;5007270;28;20348;-45
2020/12/28 00:52:13;;;;;;;0.28;0.28;;;24.00;30.10;;;;;;4989242;28;20042;-45
2020/12/28 00:54:39;;;;;;;0.60;0.40;;;24.00;30.10;;;;;;4984575;28;20026;-47
2020/12/28 00:57:06;;;;;;;0.65;0.40;;;23.90;30.10;;;;;;4989752;28;20172;-47
2020/12/28 00:59:32;;;;;;;0.45;0.43;;;23.90;30.20;;;;;;4992494;28;20022;-44
2020/12/28 01:01:59;;;;;;;0.75;0.35;;;23.90;30.20;;;;;;5002090;28;20045;-47
2020/12/28 01:04:28;;;;;;;0.73;0.50;;;23.90;30.20;;;;;;5002701;28;20140;-50
2020/12/28 01:06:57;;;;;;;1.05;0.43;;;23.80;30.20;;;;;;4985635;28;20033;-48
2020/12/28 01:09:44;;;;;;;0.50;0.40;;;23.80;30.20;;;;;;5000063;28;20113;-49
2020/12/28 01:12:10;;;;;;;0.63;0.45;;;23.80;30.20;;;;;;5003844;28;20030;-47
2020/12/28 01:14:38;;;;;;;0.68;0.38;;;23.80;30.30;;;;;;4990171;28;20388;-48
2020/12/28 01:17:04;;;;;;;0.75;0.30;;;23.80;30.30;;;;;;5006700;28;20041;-47
2020/12/28 01:19:38;;;;;;;;;;;23.80;30.40;;;;;;4998350;28;20342;-46
2020/12/28 01:22:05;;;;;;;0.88;0.45;;;23.70;30.30;;;;;;5014748;28;19917;-49
2020/12/28 01:24:31;;;;;;;0.60;0.50;;;23.70;30.30;;;;;;5016475;28;20052;-47
2020/12/28 01:26:57;;;;;;;2.00;0.50;;;23.70;30.40;;;;;;5021035;28;20026;-46
2020/12/28 01:29:22;;;;;;;0.40;0.30;;;23.60;30.40;;;;;;5027215;28;20030;-50
2020/12/28 01:31:51;;;;;;;1.65;0.63;;;23.60;30.40;;;;;;5015158;28;20033;-47
2020/12/28 01:34:34;;;;;;;0.57;0.45;;;23.70;30.50;;;;;;5017824;28;20047;-45
2020/12/28 01:37:03;;;;;;;1.00;0.45;;;23.60;30.50;;;;;;5016432;28;20040;-50
2020/12/28 01:39:45;;;;;;;0.50;0.40;;;23.60;30.50;;;;;;5017054;28;20099;-48
2020/12/28 01:42:11;;;;;;;0.55;0.50;;;23.50;30.50;;;;;;5015781;28;20060;-49
2020/12/28 01:44:39;;;;;;;0.50;0.40;;;23.50;30.50;;;;;;5014507;28;21514;-46
2020/12/28 01:47:15;;;;;;;0.55;0.55;;;23.50;30.50;;;;;;5015564;28;20091;-47
2020/12/28 01:49:42;;;;;;;0.47;0.30;;;23.50;30.50;;;;;;5014509;28;20038;-48
2020/12/28 01:52:09;;;;;;;0.98;0.40;;;23.50;30.50;;;;;;5014041;28;20026;-49
2020/12/28 01:54:36;;;;;;;1.25;0.50;;;23.50;30.50;;;;;;5014509;28;20406;-50
2020/12/28 01:57:04;;;;;;;0.90;0.40;;;23.50;30.60;;;;;;5015083;28;20041;-46
2020/12/28 01:59:39;;;;;;;0.40;0.30;;;23.50;30.60;;;;;;5014193;28;20036;-46
2020/12/28 02:02:11;;;;;;;0.65;0.30;;;23.40;30.50;;;;;;5016025;28;20025;-46
2020/12/28 02:04:37;;;;;;;0.93;0.47;;;23.50;30.60;;;;;;5015566;28;20037;-51
2020/12/28 02:07:09;;;;;;;0.70;0.30;;;23.40;30.60;;;;;;5006705;28;20049;-44
2020/12/28 02:09:35;;;;;;;0.60;0.35;;;23.40;30.60;;;;;;5015676;28;20040;-46
2020/12/28 02:12:04;;;;;;;2.00;0.52;;;23.40;30.60;;;;;;5016719;28;20033;-44
2020/12/28 02:14:34;;;;;;;0.82;0.35;;;23.40;30.70;;;;;;5006025;28;20022;-46
2020/12/28 02:17:13;;;;;;;0.30;0.30;;;23.40;30.70;;;;;;5014033;28;20034;-47
2020/12/28 02:19:45;;;;;;;0.47;0.47;;;23.30;31.00;;;;;;5010164;28;20461;-48
2020/12/28 02:22:10;;;;;;;0.40;0.40;;;23.30;30.70;;;;;;5013809;28;20033;-49
2020/12/28 02:24:44;;;;;;;0.82;0.55;;;23.30;30.70;;;;;;5013118;28;20111;-53
2020/12/28 02:27:10;;;;;;;1.30;0.40;;;23.30;30.70;;;;;;5013916;28;20551;-50
2020/12/28 02:29:36;;;;;;;0.63;0.50;;;23.30;30.70;;;;;;5013522;28;20053;-50
2020/12/28 02:32:02;;;;;;;0.32;0.30;;;23.30;30.80;;;;;;5014720;28;20032;-47
2020/12/28 02:34:46;;;;;;;0.43;0.20;;;23.20;30.70;;;;;;5012949;28;20345;-51
2020/12/28 02:37:22;;;;;;;0.35;0.30;;;23.20;30.80;;;;;;5013709;28;20036;-51
2020/12/28 02:39:59;;;;;;;0.45;0.30;;;23.20;30.80;;;;;;5013009;28;20116;-54
2020/12/28 02:42:27;;;;;;;1.30;0.50;;;23.20;30.80;;;;;;5013592;28;20464;-48
2020/12/28 02:45:11;;;;;;;0.45;0.40;;;23.20;30.80;;;;;;5012886;28;20099;-52
2020/12/28 02:47:55;;;;;;;0.50;0.35;;;23.10;30.80;;;;;;5013339;28;20088;-52
2020/12/28 02:50:40;;;;;;;0.40;0.40;;;23.10;30.80;;;;;;5014172;28;20500;-49
2020/12/28 02:53:24;;;;;;;2.08;0.25;;;23.10;30.90;;;;;;5013568;28;20125;-53
2020/12/28 02:56:08;;;;;;;0.73;0.60;;;23.10;30.90;;;;;;5013878;28;20053;-55
2020/12/28 02:58:52;;;;;;;0.32;0.30;;;23.10;30.90;;;;;;5013738;28;20061;-51
2020/12/28 03:01:37;;;;;;;;;;;23.10;30.90;;;;;;5012001;28;20053;-51
2020/12/28 03:04:21;;;;;;;0.67;0.30;;;23.00;30.90;;;;;;5013925;28;19947;-53
2020/12/28 03:07:05;;;;;;;0.45;0.30;;;23.00;30.90;;;;;;5014537;28;20072;-48
2020/12/28 03:09:49;;;;;;;0.40;0.30;;;23.00;30.90;;;;;;5013051;28;20044;-52
2020/12/28 03:12:33;;;;;;;0.40;0.30;;;23.00;31.00;;;;;;5014613;28;20523;-52
2020/12/28 03:15:17;;;;;;;0.82;0.32;;;22.90;31.00;;;;;;5013029;28;20048;-50
2020/12/28 03:18:01;;;;;;;0.30;0.30;;;23.00;31.00;;;;;;5012648;28;20049;-51
2020/12/28 03:20:45;;;;;;;0.60;0.43;;;22.90;31.00;;;;;;5000618;28;20373;-49
2020/12/28 03:23:29;;;;;;;1.85;0.60;;;22.90;30.90;;;;;;4999844;28;20126;-48
2020/12/28 03:26:13;;;;;;;0.68;0.30;;;22.90;31.00;;;;;;4996537;28;20092;-49
2020/12/28 03:28:57;;;;;;;0.40;0.40;;;22.90;30.90;;;;;;4999955;28;20044;-48
2020/12/28 03:31:42;;;;;;;0.38;0.30;;;22.90;31.00;;;;;;4995733;28;20033;-49
2020/12/28 03:34:26;;;;;;;0.55;0.30;;;22.90;31.00;;;;;;5004208;28;20052;-50
2020/12/28 03:37:10;;;;;;;0.85;0.47;;;22.80;30.90;;;;;;5009439;28;20464;-49
2020/12/28 03:39:54;;;;;;;0.77;0.40;;;22.80;30.90;;;;;;5002313;28;20040;-50
2020/12/28 03:42:38;;;;;;;1.13;0.60;;;22.80;31.00;;;;;;5001006;28;20136;-51
2020/12/28 03:45:22;;;;;;;0.82;0.50;;;22.80;31.00;;;;;;4997687;28;20045;-50
2020/12/28 03:48:06;;;;;;;0.75;0.40;;;22.80;31.00;;;;;;5004622;28;20040;-47
2020/12/28 03:50:50;;;;;;;1.48;0.43;;;22.80;31.00;;;;;;5009048;28;20420;-46
2020/12/28 03:53:34;;;;;;;0.73;0.45;;;22.80;31.10;;;;;;5010762;28;20096;-49
2020/12/28 03:56:19;;;;;;;1.40;0.40;;;22.80;31.10;;;;;;4996974;28;20414;-48
2020/12/28 03:59:03;;;;;;;0.93;0.40;;;22.70;31.00;;;;;;5003281;28;20048;-46
2020/12/28 04:01:48;;;;;;;0.85;0.50;;;22.70;31.00;;;;;;5007734;28;20046;-49
2020/12/28 04:04:32;;;;;;;0.50;0.40;;;22.70;31.00;;;;;;5008307;28;20104;-47
2020/12/28 04:07:21;;;;;;;1.00;0.60;;;22.70;31.00;;;;;;4985145;28;20056;-49
2020/12/28 04:10:05;;;;;;;0.28;0.28;;;22.70;31.00;;;;;;5004940;28;20464;-48
2020/12/28 04:12:51;;;;;;;0.80;0.43;;;22.70;31.00;;;;;;4985114;28;20030;-45
2020/12/28 04:15:17;;;;;;;1.33;0.50;;;22.60;30.90;;;;;;5002491;28;20033;-44
2020/12/28 04:17:44;;;;;;;1.02;0.60;;;22.60;30.90;;;;;;5009844;28;20033;-50
2020/12/28 04:20:10;;;;;;;0.85;0.50;;;22.60;30.90;;;;;;5005867;28;20133;-51
2020/12/28 04:22:35;;;;;;;1.70;0.60;;;22.60;30.90;;;;;;5010081;28;20097;-47
2020/12/28 04:25:01;;;;;;;0.55;0.50;;;22.60;30.90;;;;;;5008155;28;20022;-47
2020/12/28 04:27:27;;;;;;;1.02;0.45;;;22.60;30.90;;;;;;5008391;28;20037;-49
2020/12/28 04:29:53;;;;;;;1.35;0.50;;;22.60;30.90;;;;;;4997022;28;20064;-47
2020/12/28 04:32:18;;;;;;;0.73;0.40;;;22.60;30.90;;;;;;5005116;28;20030;-47
2020/12/28 04:34:44;;;;;;;1.33;0.40;;;22.60;30.90;;;;;;4998754;28;20030;-46
2020/12/28 04:37:10;;;;;;;0.88;0.65;;;22.60;30.90;;;;;;5000057;28;20027;-48
2020/12/28 04:39:36;;;;;;;1.92;0.70;;;22.60;31.00;;;;;;5004179;28;20338;-47
2020/12/28 04:42:02;;;;;;;0.70;0.52;;;22.50;30.90;;;;;;5009804;28;20433;-47
2020/12/28 04:44:28;;;;;;;0.77;0.50;;;22.50;30.90;;;;;;5006992;28;20073;-46
2020/12/28 04:46:54;;;;;;;0.75;0.50;;;22.50;30.90;;;;;;5012625;28;20029;-46
2020/12/28 04:49:21;;;;;;;0.80;0.50;;;22.50;30.90;;;;;;5011537;28;20091;-49
2020/12/28 04:51:47;;;;;;;0.88;0.60;;;22.50;30.90;;;;;;5004904;28;20021;-48
2020/12/28 04:54:12;;;;;;;0.93;0.40;;;22.50;30.90;;;;;;5012508;28;20382;-50
2020/12/28 04:56:40;;;;;;;1.10;0.60;;;22.50;30.90;;;;;;5002714;28;20085;-52
2020/12/28 04:59:06;;;;;;;0.95;0.60;;;22.40;30.90;;;;;;5005987;28;20045;-47
2020/12/28 05:01:31;;;;;;;2.22;0.70;;;22.40;30.90;;;;;;5007442;28;20038;-50
2020/12/28 05:03:57;;;;;;;0.75;0.55;;;22.40;30.90;;;;;;5015084;28;20038;-45
2020/12/28 05:06:23;;;;;;;1.65;0.70;;;22.40;30.90;;;;;;5008469;28;20034;-49
2020/12/28 05:08:49;;;;;;;1.00;0.55;;;22.40;30.90;;;;;;5001863;28;20077;-45
2020/12/28 05:11:15;;;;;;;1.30;0.50;;;22.40;30.90;;;;;;5004295;28;20088;-46
2020/12/28 05:13:51;;;;;;;0.93;0.38;;;22.40;30.90;;;;;;5004418;28;20034;-45
2020/12/28 05:16:17;;;;;;;0.47;0.40;;;22.40;31.00;;;;;;5004543;28;20034;-44
2020/12/28 05:18:51;;;;;;;0.50;0.50;;;22.40;31.00;;;;;;5004007;28;20117;-44
2020/12/28 05:21:27;;;;;;;1.33;0.55;;;22.40;31.00;;;;;;5009405;28;20038;-49
2020/12/28 05:23:53;;;;;;;0.85;0.50;;;22.40;31.00;;;;;;5012580;28;20073;-45
2020/12/28 05:26:22;;;;;;;1.63;0.60;;;22.40;31.00;;;;;;5012798;28;20454;-47
2020/12/28 05:28:53;;;;;;;0.90;0.40;;;22.40;31.10;;;;;;5002802;28;20030;-48
2020/12/28 05:31:20;;;;;;;1.40;0.57;;;22.30;31.00;;;;;;5003241;28;20446;-48
2020/12/28 05:33:46;;;;;;;1.27;0.55;;;22.30;31.00;;;;;;5014657;28;20109;-46
2020/12/28 05:36:13;;;;;;;0.85;0.40;;;22.30;31.00;;;;;;5004458;28;20030;-43
2020/12/28 05:38:43;;;;;;;1.15;0.50;;;22.30;30.90;;;;;;4998583;28;20041;-44
2020/12/28 05:41:09;;;;;;;1.15;0.50;;;22.30;31.00;;;;;;5002706;28;20111;-47
2020/12/28 05:43:34;;;;;;;0.90;0.47;;;22.30;31.00;;;;;;5007500;28;20125;-49
2020/12/28 05:46:00;;;;;;;0.95;0.40;;;22.30;31.00;;;;;;4999100;28;20350;-48
2020/12/28 05:48:26;;;;;;;0.63;0.40;;;22.30;31.10;;;;;;5011377;28;20341;-52
2020/12/28 05:50:57;;;;;;;0.55;0.38;;;22.30;31.00;;;;;;5010557;28;20026;-49
2020/12/28 05:53:25;;;;;;;0.73;0.55;;;22.30;31.00;;;;;;4999277;28;20030;-49
2020/12/28 05:55:51;;;;;;;0.93;0.50;;;22.20;31.00;;;;;;5002099;28;20056;-48
2020/12/28 05:58:21;;;;;;;0.80;0.47;;;22.20;31.00;;;;;;5002474;28;20116;-51
2020/12/28 06:00:50;;;;;;;1.13;0.50;;;22.20;31.00;;;;;;5009372;28;20439;-46
2020/12/28 06:03:24;;;;;;;0.77;0.50;;;22.20;31.00;;;;;;5006612;28;20034;-49
2020/12/28 06:05:53;;;;;;;0.60;0.40;;;22.20;31.00;;;;;;5008628;28;20088;-46
2020/12/28 06:08:20;;;;;;;0.73;0.52;;;22.20;31.00;;;;;;5007759;28;20751;-47
2020/12/28 06:10:45;;;;;;;0.90;0.60;;;22.20;31.00;;;;;;5009057;28;20022;-51
2020/12/28 06:13:21;;;;;;;1.73;0.80;;;22.20;31.00;;;;;;5009799;28;20441;-48
2020/12/28 06:16:05;;;;;;;1.50;0.50;;;22.20;31.10;;;;;;5011250;28;20042;-49
2020/12/28 06:18:31;;;;;;;0.70;0.40;;;22.20;31.10;;;;;;5006645;28;20045;-50
2020/12/28 06:20:57;;;;;;;0.47;0.38;;;22.20;31.70;;;;;;5011179;28;20045;-49
2020/12/28 06:23:27;;;;;;;1.35;0.60;;;22.10;31.10;;;;;;5002381;28;20073;-53
2020/12/28 06:25:55;;;;;;;0.60;0.60;;;22.10;31.00;;;;;;5008963;28;20108;-48
2020/12/28 06:28:26;;;;;;;1.38;0.60;;;22.10;31.10;;;;;;4999268;28;20117;-48
2020/12/28 06:31:05;;;;;;;1.95;0.77;;;22.10;31.10;;;;;;5002760;28;20034;-50
2020/12/28 06:33:31;;;;;;;0.57;0.50;;;22.10;31.10;;;;;;5007053;28;20049;-47
2020/12/28 06:35:57;;;;;;;0.95;0.52;;;22.10;31.20;;;;;;5000136;28;20041;-51
2020/12/28 06:38:24;;;;;;;0.70;0.55;;;22.10;31.20;;;;;;4981811;28;20326;-49
2020/12/28 06:40:51;;;;;;;1.52;0.60;;;22.10;31.20;;;;;;5004983;28;20414;-49
2020/12/28 06:43:20;;;;;;;1.00;0.50;;;22.10;31.20;;;;;;5001643;28;20045;-48
2020/12/28 06:45:48;;;;;;;0.82;0.57;;;22.10;31.30;;;;;;5004916;28;20034;-49
2020/12/28 06:48:22;;;;;;;0.95;0.65;;;22.00;31.10;;;;;;5005147;28;20048;-48
2020/12/28 06:50:49;;;;;;;0.80;0.63;;;22.10;31.20;;;;;;5008901;28;20034;-48
2020/12/28 06:53:27;;;;;;;1.02;0.65;;;22.00;31.10;;;;;;5001210;28;20458;-49
2020/12/28 06:55:53;;;;;;;1.52;0.50;;;22.10;31.20;;;;;;5003951;28;20088;-47
2020/12/28 06:58:19;;;;;;;1.27;0.70;;;22.00;31.20;;;;;;5003754;28;20122;-49
2020/12/28 07:00:45;;;;;;;0.80;0.60;;;22.00;31.20;;;;;;5002849;28;20022;-48
2020/12/28 07:03:15;;;;;;;1.00;0.80;;;22.00;31.20;;;;;;4999483;28;20076;-48
2020/12/28 07:05:41;;;;;;;1.27;0.80;;;22.00;31.20;;;;;;5001994;28;20033;-44
2020/12/28 07:08:07;;;;;;;1.13;0.80;;;22.00;31.20;;;;;;5012949;28;20037;-49
2020/12/28 07:10:33;;;;;;;1.10;0.82;;;22.00;31.30;;;;;;5000762;28;20026;-46
2020/12/28 07:13:03;;;;;;;0.88;0.63;;;22.00;31.30;;;;;;5014642;28;20038;-51
2020/12/28 07:15:29;;;;;;;0.85;0.73;;;22.00;31.30;;;;;;5002799;28;20457;-49
2020/12/28 07:17:55;;;;;;;1.30;0.90;;;22.00;31.30;;;;;;5015221;28;20041;-48
2020/12/28 07:20:21;;;;;;;1.25;0.80;;;21.90;31.20;;;;;;5005036;28;20054;-47
2020/12/28 07:22:47;;;;;;;1.10;0.73;;;21.90;31.20;;;;;;5012370;28;20034;-51
2020/12/28 07:25:13;;;;;;;1.15;0.77;;;21.90;31.20;;;;;;5012845;28;20084;-46
2020/12/28 07:27:45;;;;;;;1.38;0.80;;;21.90;31.20;;;;;;5007777;28;20053;-50
2020/12/28 07:30:12;;;;;;;1.95;0.82;;;21.90;31.30;;;;;;4996682;28;20434;-47
2020/12/28 07:32:39;;;;;;;2.08;0.90;;;21.90;31.30;;;;;;5002167;28;20041;-47
2020/12/28 07:35:06;;;;;;;4.45;1.17;;;21.90;31.30;;;;;;5011224;28;20049;-45
2020/12/28 07:37:37;;;;;;;1.88;0.90;;;21.90;31.30;;;;;;5009788;28;20405;-50
2020/12/28 07:40:03;;;;;;;2.08;1.30;;;21.90;31.30;;;;;;5012016;28;20121;-47
2020/12/28 07:42:29;;;;;;;3.63;1.30;;;21.90;31.30;;;;;;5010490;28;20048;-50
2020/12/28 07:45:01;;;;;;;3.35;1.48;;;21.90;31.30;;;;;;5015257;28;20033;-51
2020/12/28 07:47:31;;;;;;;2.42;1.20;;;21.80;31.90;;;;;;5005568;28;20345;-51
2020/12/28 07:50:03;;;;;;;3.22;1.23;;;21.90;31.50;;;;;;5003040;28;20045;-49
2020/12/28 07:52:39;;;;;;;3.70;1.85;;;21.90;32.00;;;;;;4998183;28;20041;-51
2020/12/28 07:55:14;;;;;;;4.13;1.60;;;22.00;32.30;;;;;;5013635;28;20369;-50
2020/12/28 07:58:08;;;;;;;3.63;1.63;;;22.10;32.40;;;;;;5011350;28;20061;-48
2020/12/28 08:00:38;;;;;;;5.22;2.10;;;22.20;32.50;;;;;;5008782;28;20044;-48
2020/12/28 08:03:09;;;;;;;5.93;2.25;;;22.30;32.50;;;;;;5001662;28;20137;-50
2020/12/28 08:05:35;;;;;;;6.00;1.70;;;22.40;32.50;;;;;;5008160;28;20116;-48
2020/12/28 08:08:04;;;;;;;3.45;1.63;;;22.50;32.30;;;;;;5010678;28;20026;-47
2020/12/28 08:10:30;;;;;;;4.50;2.00;;;22.50;32.10;;;;;;5009032;28;20037;-49
2020/12/28 08:12:59;;;;;;;3.35;1.48;;;22.60;32.00;;;;;;5003825;28;20026;-49
2020/12/28 08:15:29;;;;;;;4.97;2.00;;;22.80;32.00;;;;;;5002692;28;20025;-48
2020/12/28 08:18:09;;;;;;;5.53;1.50;;;22.80;31.80;;;;;;5014094;28;20053;-50
2020/12/28 08:20:36;;;;;;;4.10;1.52;;;23.00;31.80;;;;;;5003489;28;20046;-48
2020/12/28 08:23:02;;;;;;;4.18;1.30;;;23.10;31.70;;;;;;5000661;28;20070;-52
2020/12/28 08:25:32;;;;;;;4.35;1.95;;;23.10;31.60;;;;;;5005552;28;20424;-53
2020/12/28 08:28:01;;;;;;;7.28;2.13;;;23.20;31.60;;;;;;5001463;28;20045;-48
2020/12/28 08:30:28;;;;;;;4.55;1.65;;;23.30;31.60;;;;;;4981467;28;20411;-50
2020/12/28 08:32:59;;;;;;;4.90;2.00;;;23.40;31.50;;;;;;5011260;28;20046;-49
2020/12/28 08:35:25;;;;;;;5.22;2.00;;;23.50;31.50;;;;;;4999490;28;20049;-49
2020/12/28 08:37:52;;;;;;;6.55;2.00;;;23.60;31.50;;;;;;5008539;28;20061;-53
2020/12/28 08:40:23;;;;;;;6.72;1.70;;;23.70;31.40;;;;;;5009101;28;20023;-49
2020/12/28 08:42:57;;;;;;;4.55;2.15;;;23.80;31.30;;;;;;5005110;28;20046;-49
2020/12/28 08:45:25;;;;;;;5.85;1.88;;;23.90;31.30;;;;;;4986355;28;20109;-46
2020/12/28 08:47:59;;;;;;;3.38;1.67;;;23.90;31.10;;;;;;4987645;28;20438;-48
2020/12/28 08:50:31;;;;;;;3.88;1.92;;;24.00;31.00;;;;;;5010109;28;20038;-47
2020/12/28 08:52:57;;;;;;;3.75;1.60;;;24.10;30.90;;;;;;5011237;28;20481;-49
2020/12/28 08:55:23;;;;;;;3.95;1.65;;;24.10;30.70;;;;;;4989546;28;20127;-50
2020/12/28 08:57:52;;;;;;;5.22;1.92;;;24.20;30.70;;;;;;5013031;28;20315;-46
2020/12/28 09:00:17;;;;;;;3.65;1.70;;;24.30;30.70;;;;;;5011150;28;20030;-47
2020/12/28 09:02:50;;;;;;;2.88;1.40;;;24.30;30.50;;;;;;4995503;28;20031;-46
2020/12/28 09:05:17;;;;;;;2.88;1.38;;;24.40;30.40;;;;;;5001584;28;20022;-50
2020/12/28 09:07:42;;;;;;;3.75;1.63;;;24.40;30.30;;;;;;5005607;28;20030;-47
2020/12/28 09:10:08;;;;;;;3.88;1.40;;;24.50;30.20;;;;;;5000100;28;20456;-44
2020/12/28 09:12:34;;;;;;;4.30;1.45;;;24.60;30.10;;;;;;5004381;28;20318;-44
2020/12/28 09:15:00;;;;;;;3.67;1.42;;;24.60;30.00;;;;;;4995234;28;20034;-45
2020/12/28 09:17:25;;;;;;;3.30;1.42;;;24.60;29.90;;;;;;5013562;28;20075;-45
2020/12/28 09:19:51;;;;;;;4.20;1.58;;;24.60;29.90;;;;;;5020446;28;20041;-47
2020/12/28 09:22:17;;;;;;;3.58;1.70;;;24.70;29.90;;;;;;5032185;28;20061;-48
2020/12/28 09:24:43;;;;;;;3.97;1.40;;;24.60;29.80;;;;;;5031197;28;20136;-50
2020/12/28 09:27:09;;;;;;;2.53;1.20;;;24.70;29.80;;;;;;5036221;28;20060;-53
2020/12/28 09:29:34;;;;;;;2.13;1.20;;;24.70;29.80;;;;;;5035663;28;20033;-47
2020/12/28 09:32:00;;;;;;;3.95;1.48;;;24.70;29.80;;;;;;5035074;28;20433;-48
2020/12/28 09:34:26;;;;;;;2.65;1.35;;;24.70;29.70;;;;;;5026212;28;20034;-44
2020/12/28 09:36:59;;;;;;;3.13;1.17;;;24.70;29.70;;;;;;5021997;28;20037;-47
2020/12/28 09:39:25;;;;;;;2.45;1.25;;;24.80;29.80;;;;;;5034928;28;20061;-48
2020/12/28 09:41:51;;;;;;;3.30;1.17;;;24.80;29.80;;;;;;5036103;28;20068;-46
2020/12/28 09:44:17;;;;;;;2.35;1.10;;;24.80;29.90;;;;;;5026324;28;20037;-51
2020/12/28 09:46:43;;;;;;;2.80;1.58;;;24.80;29.90;;;;;;5009478;28;20038;-46
2020/12/28 09:49:09;;;;;;;2.65;1.20;;;24.80;29.90;;;;;;5029398;28;20037;-46
2020/12/28 09:51:34;;;;;;;2.85;1.08;;;24.80;29.90;;;;;;5025177;28;20057;-46
2020/12/28 09:54:00;;;;;;;2.38;1.00;;;24.80;30.40;;;;;;5027951;28;20033;-48
2020/12/28 09:56:26;;;;;;;2.78;1.30;;;24.80;29.90;;;;;;5018384;28;20026;-48
2020/12/28 09:58:52;;;;;;;2.90;1.27;;;24.80;29.90;;;;;;5031700;28;21668;-45
2020/12/28 10:01:17;;;;;;;3.05;1.42;;;24.80;29.80;;;;;;5017460;28;20120;-47
2020/12/28 10:03:43;;;;;;;2.90;1.25;;;24.80;29.80;;;;;;5033218;28;20147;-46
2020/12/28 10:06:31;;;;;;;2.03;1.15;;;24.90;29.80;;;;;;5028078;28;20044;-49
2020/12/28 10:09:00;;;;;;;2.83;1.38;;;24.90;29.80;;;;;;5016767;28;20034;-47
2020/12/28 10:11:25;;;;;;;3.05;1.40;;;24.90;29.80;;;;;;5020814;28;20033;-49
2020/12/28 10:13:51;;;;;;;2.67;1.38;;;24.90;29.80;;;;;;5024867;28;20044;-48
2020/12/28 10:16:22;;;;;;;1.73;0.90;;;24.90;29.70;;;;;;5017627;28;20034;-44
2020/12/28 10:18:48;;;;;;;2.42;1.10;;;24.90;29.60;;;;;;5017708;28;20034;-48
2020/12/28 10:21:13;;;;;;;1.55;1.00;;;24.90;29.60;;;;;;4987380;28;20418;-49
2020/12/28 10:23:39;;;;;;;2.15;1.00;;;24.90;29.60;;;;;;5002756;28;20058;-49
2020/12/28 10:26:06;;;;;;;2.28;1.20;;;24.90;29.50;;;;;;4997808;28;20161;-46
2020/12/28 10:28:33;;;;;;;2.35;1.30;;;24.90;29.50;;;;;;4998989;28;20034;-49
2020/12/28 10:30:59;;;;;;;1.80;0.88;;;24.90;29.40;;;;;;5003843;28;20388;-47
2020/12/28 10:33:25;;;;;;;1.33;0.75;;;24.90;29.40;;;;;;5004993;28;20105;-50
2020/12/28 10:35:51;;;;;;;1.33;0.98;;;25.00;29.40;;;;;;4989448;28;20025;-48
2020/12/28 10:38:16;;;;;;;1.80;0.93;;;24.90;29.80;;;;;;4993455;28;20366;-54
2020/12/28 10:40:42;;;;;;;1.77;0.80;;;25.00;29.30;;;;;;4997360;28;20031;-48
2020/12/28 10:43:08;;;;;;;2.95;1.15;;;25.00;29.30;;;;;;4998376;28;20057;-46
2020/12/28 10:45:34;;;;;;;2.83;1.10;;;24.90;29.30;;;;;;5015759;28;20041;-52
2020/12/28 10:48:00;;;;;;;1.77;0.90;;;25.00;29.30;;;;;;5009266;28;20042;-59
2020/12/28 10:50:25;;;;;;;3.17;0.73;;;25.00;29.40;;;;;;5012489;28;20403;-48
2020/12/28 10:52:51;;;;;;;2.80;0.93;;;25.00;29.30;;;;;;5014430;28;20089;-55
2020/12/28 10:55:17;;;;;;;2.03;1.02;;;25.00;29.40;;;;;;5011728;28;20034;-54
2020/12/28 10:57:42;;;;;;;1.50;0.77;;;25.00;29.50;;;;;;4998950;28;20030;-56
2020/12/28 11:00:08;;;;;;;1.92;0.85;;;25.00;30.00;;;;;;5002585;28;20100;-49
2020/12/28 11:02:34;;;;;;;2.08;0.90;;;25.00;29.50;;;;;;4996847;28;20062;-52
2020/12/28 11:05:00;;;;;;;2.72;1.25;;;25.00;29.50;;;;;;5004417;28;20097;-50
2020/12/28 11:07:25;;;;;;;1.10;0.70;;;25.00;29.60;;;;;;5006406;28;20033;-49
2020/12/28 11:09:51;;;;;;;2.17;1.10;;;25.00;29.60;;;;;;5005148;28;20142;-49
2020/12/28 11:12:17;;;;;;;1.85;0.95;;;25.00;29.50;;;;;;5000023;28;20038;-49
2020/12/28 11:14:43;;;;;;;2.00;0.90;;;25.00;29.50;;;;;;5003227;28;20026;-47
2020/12/28 11:17:08;;;;;;;1.25;0.73;;;24.90;29.30;;;;;;5007616;28;20022;-55
2020/12/28 11:19:34;;;;;;;1.38;0.63;;;25.00;29.30;;;;;;4999472;28;20497;-48
2020/12/28 11:22:00;;;;;;;1.73;0.90;;;25.00;29.20;;;;;;5009908;28;20022;-51
2020/12/28 11:24:26;;;;;;;0.70;0.60;;;25.00;29.10;;;;;;5011882;28;20060;-58
2020/12/28 11:26:51;;;;;;;3.60;0.60;;;24.90;28.40;;;;;;5000145;28;20038;-56
2020/12/28 11:29:17;;;;;;;2.55;0.70;;;24.70;28.30;;;;;;5007250;28;20033;-55
2020/12/28 11:31:43;;;;;;;1.65;0.50;;;24.30;28.80;;;;;;5007354;28;20109;-52
2020/12/28 11:34:08;;;;;;;1.17;0.50;;;24.00;29.20;;;;;;5002834;28;20030;-50
2020/12/28 11:36:34;;;;;;;1.25;0.40;;;23.90;29.40;;;;;;5001419;28;20034;-51
2020/12/28 11:39:00;;;;;;;1.40;0.60;;;23.90;29.50;;;;;;4995453;28;20036;-54
2020/12/28 11:41:27;;;;;;;0.68;0.40;;;23.90;29.50;;;;;;5002445;28;20035;-55
2020/12/28 11:43:52;;;;;;;2.63;0.50;;;24.00;29.50;;;;;;5003482;28;20053;-51
2020/12/28 11:46:19;;;;;;;1.00;0.60;;;24.10;29.50;;;;;;5004312;28;20037;-52
2020/12/28 11:48:46;;;;;;;0.80;0.50;;;24.10;29.50;;;;;;5006456;28;20057;-55
2020/12/28 11:51:12;;;;;;;1.10;0.63;;;24.20;29.60;;;;;;5007382;28;20040;-51
2020/12/28 11:53:38;;;;;;;1.48;0.55;;;24.20;29.80;;;;;;5007738;28;20030;-55
2020/12/28 11:56:05;;;;;;;0.95;0.50;;;24.30;29.90;;;;;;5010919;28;20168;-50
2020/12/28 11:58:35;;;;;;;0.88;0.57;;;24.30;30.00;;;;;;5007364;28;20034;-52
2020/12/28 12:01:02;;;;;;;1.58;0.70;;;24.30;30.00;;;;;;5003828;28;20032;-53
2020/12/28 12:03:28;;;;;;;1.10;0.60;;;24.40;30.00;;;;;;5001562;28;20062;-52
2020/12/28 12:05:59;;;;;;;2.25;0.73;;;24.50;30.20;;;;;;5004101;28;20038;-50
2020/12/28 12:08:26;;;;;;;1.42;0.65;;;24.50;30.10;;;;;;5006875;28;20147;-49
2020/12/28 12:10:52;;;;;;;2.63;0.93;;;24.60;30.10;;;;;;5009475;28;20033;-47
2020/12/28 12:13:19;;;;;;;1.73;0.90;;;24.60;30.00;;;;;;5003876;28;20027;-49
2020/12/28 12:15:46;;;;;;;2.25;0.60;;;24.60;30.00;;;;;;5005406;28;20057;-56
2020/12/28 12:18:12;;;;;;;5.38;0.77;;;24.70;30.00;;;;;;5000614;28;20093;-52
2020/12/28 12:20:39;;;;;;;1.73;0.90;;;24.70;30.00;;;;;;5017705;28;20439;-55
2020/12/28 12:23:05;;;;;;;1.63;0.80;;;24.70;30.00;;;;;;5023817;28;20034;-48
2020/12/28 12:25:32;;;;;;;5.40;1.00;;;24.80;30.00;;;;;;5022623;28;20045;-52
2020/12/28 12:27:57;;;;;;;1.17;0.77;;;24.80;29.90;;;;;;5022252;28;20033;-54
2020/12/28 12:30:23;;;;;;;2.50;0.68;;;24.80;29.90;;;;;;5020230;28;20338;-53
2020/12/28 12:32:49;;;;;;;2.20;0.80;;;24.80;29.80;;;;;;5023924;28;20103;-56
2020/12/28 12:35:15;;;;;;;5.00;0.80;;;24.80;29.70;;;;;;5022992;28;20041;-56
2020/12/28 12:37:41;;;;;;;1.35;0.80;;;24.80;29.60;;;;;;5027338;28;20022;-57
2020/12/28 12:40:06;;;;;;;1.48;0.80;;;24.80;29.70;;;;;;5024219;28;20105;-54
2020/12/28 12:42:32;;;;;;;4.32;0.80;;;24.90;29.80;;;;;;5021637;28;20353;-56
2020/12/28 12:44:58;;;;;;;2.15;0.80;;;24.90;29.70;;;;;;5020465;28;20049;-53
2020/12/28 12:47:24;;;;;;;2.05;0.93;;;25.00;29.70;;;;;;5020801;28;20111;-58
2020/12/28 12:49:49;;;;;;;0.93;0.60;;;25.00;29.70;;;;;;5021724;28;20044;-60
2020/12/28 12:52:23;;;;;;;2.83;0.65;;;25.00;29.60;;;;;;5024760;28;20699;-57
2020/12/28 12:54:50;;;;;;;2.00;0.60;;;25.00;30.00;;;;;;5022249;28;20041;-56
2020/12/28 12:57:17;;;;;;;1.83;0.80;;;25.00;29.50;;;;;;5022685;28;20330;-53
2020/12/28 13:02:30;;;;;;;1.20;0.70;;;25.00;29.70;;;;;;5029403;28;20445;-53